Time;durP1;ratioP1;P1;durP2;ratioP2;P2;SDS_P1;SDS_P2;PMS_P1;PMS_P2;Temp;Humidity;BMP_temperature;BMP_pressure;BME280_temperature;BME280_humidity;BME280_pressure;Samples;Min_cycle;Max_cycle;Signal;HPM_P1;HPM_P2
2022/12/01 00:00:44;;;;;;;23.20;13.65;;;;;;;;;;4969372;28;20074;-77
2022/12/01 00:03:15;;;;;;;31.05;19.05;;;;;;;;;;4985113;28;20030;-78
2022/12/01 00:05:41;;;;;;;26.13;18.17;;;;;;;;;;4977964;28;20058;-77
2022/12/01 00:08:07;;;;;;;30.17;19.05;;;;;;;;;;4976396;28;20039;-77
2022/12/01 00:10:32;;;;;;;33.25;21.60;;;;;;;;;;4969893;28;20031;-77
2022/12/01 00:13:04;;;;;;;33.70;17.95;;;;;;;;;;4984136;28;20022;-77
2022/12/01 00:15:33;;;;;;;23.00;17.75;;;;;;;;;;4973199;28;20031;-77
2022/12/01 00:17:59;;;;;;;26.48;19.85;;;;;;;;;;4978830;28;20027;-77
2022/12/01 00:20:31;;;;;;;33.70;18.30;;;;;;;;;;4965898;28;20023;-77
2022/12/01 00:23:00;;;;;;;23.67;15.93;;;;;;;;;;4966779;28;20485;-77
2022/12/01 00:25:26;;;;;;;21.92;18.17;;;;;;;;;;4981824;28;20023;-77
2022/12/01 00:27:57;;;;;;;24.92;20.30;;;;;;;;;;4971078;28;20122;-77
2022/12/01 00:30:23;;;;;;;31.67;20.15;;;;;;;;;;4966940;28;20091;-77
2022/12/01 00:32:49;;;;;;;25.92;17.58;;;;;;;;;;4954761;28;20071;-77
2022/12/01 00:35:17;;;;;;;31.73;20.50;;;;;;;;;;4973178;28;20030;-77
2022/12/01 00:37:45;;;;;;;28.33;19.33;;;;;;;;;;4982619;28;20547;-77
2022/12/01 00:40:13;;;;;;;28.27;20.38;;;;;;;;;;4968836;28;20034;-77
2022/12/01 00:42:41;;;;;;;28.88;20.48;;;;;;;;;;4969615;28;20034;-77
2022/12/01 00:45:08;;;;;;;25.05;17.27;;;;;;;;;;4974014;23;20043;-71
2022/12/01 00:47:34;;;;;;;24.15;16.67;;;;;;;;;;4953855;28;20035;-71
2022/12/01 00:50:02;;;;;;;24.17;18.30;;;;;;;;;;4945132;28;20512;-73
2022/12/01 00:52:28;;;;;;;23.23;16.20;;;;;;;;;;4946126;28;20043;-71
2022/12/01 00:54:54;;;;;;;26.25;18.23;;;;;;;;;;4949785;28;20050;-71
2022/12/01 00:57:20;;;;;;;25.33;17.50;;;;;;;;;;4962424;28;20038;-71
2022/12/01 00:59:48;;;;;;;28.25;18.00;;;;;;;;;;4946651;28;20518;-71
2022/12/01 01:02:14;;;;;;;25.92;20.10;;;;;;;;;;4951949;28;20031;-71
2022/12/01 01:04:40;;;;;;;27.70;18.33;;;;;;;;;;4951263;28;20027;-71
2022/12/01 01:07:06;;;;;;;28.33;18.98;;;;;;;;;;4956239;28;20027;-71
2022/12/01 01:09:34;;;;;;;25.60;18.88;;;;;;;;;;4941982;29;20031;-73
2022/12/01 01:12:00;;;;;;;23.83;15.57;;;;;;;;;;4946779;28;20031;-73
2022/12/01 01:14:26;;;;;;;25.45;15.88;;;;;;;;;;4952736;28;20397;-71
2022/12/01 01:16:52;;;;;;;28.77;17.55;;;;;;;;;;4955847;28;20059;-71
2022/12/01 01:19:18;;;;;;;25.85;18.17;;;;;;;;;;4948376;28;20030;-71
2022/12/01 01:21:44;;;;;;;30.92;18.92;;;;;;;;;;4949700;28;20023;-71
2022/12/01 01:24:15;;;;;;;27.05;18.20;;;;;;;;;;4958275;28;20047;-71
2022/12/01 01:26:43;;;;;;;24.08;17.30;;;;;;;;;;4954328;28;20023;-72
2022/12/01 01:29:13;;;;;;;24.08;17.05;;;;;;;;;;4959085;28;20047;-72
2022/12/01 01:31:40;;;;;;;24.77;16.77;;;;;;;;;;4950366;28;20146;-71
2022/12/01 01:34:08;;;;;;;25.90;16.98;;;;;;;;;;4943621;29;20042;-72
2022/12/01 01:36:34;;;;;;;26.55;18.60;;;;;;;;;;4952067;28;20031;-72
2022/12/01 01:39:00;;;;;;;21.10;16.15;;;;;;;;;;4958348;28;20107;-72
2022/12/01 01:41:31;;;;;;;20.58;17.73;;;;;;;;;;4951513;28;20042;-72
2022/12/01 01:44:03;;;;;;;21.50;16.05;;;;;;;;;;4944266;28;20039;-72
2022/12/01 01:46:35;;;;;;;32.47;17.33;;;;;;;;;;4954880;28;20393;-72
2022/12/01 01:49:03;;;;;;;25.13;16.20;;;;;;;;;;4945276;28;20026;-72
2022/12/01 01:51:31;;;;;;;32.22;19.33;;;;;;;;;;4950365;28;20035;-72
2022/12/01 01:54:04;;;;;;;27.13;21.65;;;;;;;;;;4958306;28;20036;-72
2022/12/01 01:56:30;;;;;;;29.35;18.42;;;;;;;;;;4960596;28;20224;-72
2022/12/01 01:58:57;;;;;;;32.35;20.88;;;;;;;;;;4965302;28;20055;-72
2022/12/01 02:01:23;;;;;;;21.52;15.38;;;;;;;;;;4948660;28;20558;-72
2022/12/01 02:03:53;;;;;;;23.98;19.10;;;;;;;;;;4945396;28;20032;-72
2022/12/01 02:06:20;;;;;;;25.40;18.33;;;;;;;;;;4948127;28;20478;-72
2022/12/01 02:08:48;;;;;;;25.52;15.85;;;;;;;;;;4962895;28;20039;-72
2022/12/01 02:11:17;;;;;;;24.52;19.38;;;;;;;;;;4954158;28;20058;-72
2022/12/01 02:13:43;;;;;;;24.52;17.85;;;;;;;;;;4934958;29;20039;-72
2022/12/01 02:16:17;;;;;;;19.33;15.10;;;;;;;;;;4953601;28;20433;-72
2022/12/01 02:19:02;;;;;;;23.23;16.77;;;;;;;;;;4958114;28;20517;-72
2022/12/01 02:21:45;;;;;;;25.73;18.05;;;;;;;;;;4948243;28;20513;-72
2022/12/01 02:24:14;;;;;;;24.10;14.95;;;;;;;;;;4945295;29;20027;-72
2022/12/01 02:26:47;;;;;;;23.27;19.75;;;;;;;;;;4955534;28;20038;-72
2022/12/01 02:29:13;;;;;;;24.80;17.70;;;;;;;;;;4957256;28;20360;-72
2022/12/01 02:31:41;;;;;;;25.60;18.50;;;;;;;;;;4956497;28;20041;-72
2022/12/01 02:34:17;;;;;;;23.10;16.77;;;;;;;;;;4953923;28;20039;-72
2022/12/01 02:37:12;;;;;;;26.35;14.82;;;;;;;;;;4965728;28;20035;-72
2022/12/01 02:39:45;;;;;;;26.85;17.15;;;;;;;;;;4958495;28;20047;-72
2022/12/01 02:42:52;;;;;;;20.42;15.60;;;;;;;;;;4959231;28;20031;-72
2022/12/01 02:45:39;;;;;;;25.30;17.23;;;;;;;;;;4947379;28;20035;-72
2022/12/01 02:48:08;;;;;;;23.60;17.35;;;;;;;;;;4937049;28;20039;-72
2022/12/01 02:50:41;;;;;;;19.90;16.33;;;;;;;;;;4945039;28;20023;-72
2022/12/01 02:53:09;;;;;;;20.98;15.30;;;;;;;;;;4968927;28;20035;-72
2022/12/01 02:56:06;;;;;;;23.25;13.25;;;;;;;;;;4938951;28;20023;-72
2022/12/01 02:58:32;;;;;;;20.98;14.05;;;;;;;;;;4965335;28;20215;-72
2022/12/01 03:01:05;;;;;;;24.77;15.18;;;;;;;;;;4965415;28;20505;-72
2022/12/01 03:03:43;;;;;;;22.63;16.35;;;;;;;;;;4956005;28;20397;-72
2022/12/01 03:06:14;;;;;;;18.27;12.65;;;;;;;;;;4948150;28;20028;-72
2022/12/01 03:09:12;;;;;;;14.90;12.25;;;;;;;;;;4962992;28;20496;-72
2022/12/01 03:11:42;;;;;;;19.98;11.32;;;;;;;;;;4905478;28;21410;-72
2022/12/01 03:14:15;;;;;;;13.48;10.70;;;;;;;;;;4952774;28;20050;-72
2022/12/01 03:16:49;;;;;;;14.30;9.90;;;;;;;;;;4966612;28;20027;-72
2022/12/01 03:19:23;;;;;;;21.70;13.10;;;;;;;;;;4985023;28;20043;-72
2022/12/01 03:22:00;;;;;;;12.70;10.50;;;;;;;;;;4978718;28;20031;-72
2022/12/01 03:24:28;;;;;;;21.45;12.98;;;;;;;;;;4953091;28;20043;-72
2022/12/01 03:26:56;;;;;;;16.27;11.05;;;;;;;;;;4954959;29;20031;-72
2022/12/01 03:29:29;;;;;;;21.67;11.18;;;;;;;;;;4944842;29;20474;-72
2022/12/01 03:32:01;;;;;;;15.38;10.90;;;;;;;;;;4936052;28;20348;-72
2022/12/01 03:34:34;;;;;;;15.20;10.18;;;;;;;;;;4952050;28;20023;-72
2022/12/01 03:37:01;;;;;;;11.77;9.98;;;;;;;;;;4955917;28;20034;-72
2022/12/01 03:39:34;;;;;;;16.85;11.75;;;;;;;;;;4942185;29;20782;-72
2022/12/01 03:42:13;;;;;;;15.82;11.20;;;;;;;;;;4950138;28;20042;-72
2022/12/01 03:44:53;;;;;;;12.15;8.40;;;;;;;;;;4952526;28;20027;-72
2022/12/01 03:47:20;;;;;;;15.70;10.77;;;;;;;;;;4946349;29;20038;-72
2022/12/01 03:49:50;;;;;;;16.08;10.88;;;;;;;;;;4959579;28;20485;-72
2022/12/01 03:52:27;;;;;;;15.48;10.82;;;;;;;;;;4945318;28;20039;-72
2022/12/01 03:55:12;;;;;;;22.80;13.52;;;;;;;;;;4950954;28;20027;-72
2022/12/01 03:57:45;;;;;;;13.27;11.50;;;;;;;;;;4985181;28;20049;-72
2022/12/01 04:00:14;;;;;;;18.15;11.82;;;;;;;;;;4966816;28;20486;-72
2022/12/01 04:02:40;;;;;;;15.65;12.50;;;;;;;;;;4955184;28;20039;-72
2022/12/01 04:05:08;;;;;;;15.82;11.25;;;;;;;;;;4952529;28;20050;-72
2022/12/01 04:07:36;;;;;;;16.15;11.63;;;;;;;;;;4960589;28;20031;-72
2022/12/01 04:10:03;;;;;;;16.83;10.98;;;;;;;;;;4948517;28;20034;-72
2022/12/01 04:12:29;;;;;;;16.98;10.10;;;;;;;;;;4952424;28;20031;-72
2022/12/01 04:14:59;;;;;;;18.90;14.32;;;;;;;;;;4937063;28;20166;-72
2022/12/01 04:17:25;;;;;;;15.75;10.48;;;;;;;;;;4960415;28;20393;-72
2022/12/01 04:19:52;;;;;;;17.73;9.95;;;;;;;;;;4946213;28;20032;-72
2022/12/01 04:22:18;;;;;;;14.15;10.50;;;;;;;;;;4964370;28;20035;-72
2022/12/01 04:24:44;;;;;;;14.13;9.80;;;;;;;;;;4943346;28;20027;-72
2022/12/01 04:27:10;;;;;;;18.58;11.65;;;;;;;;;;4954159;28;20032;-72
2022/12/01 04:29:35;;;;;;;14.88;10.57;;;;;;;;;;4952263;28;20055;-71
2022/12/01 04:32:01;;;;;;;17.35;10.07;;;;;;;;;;4958925;28;20053;-72
2022/12/01 04:34:27;;;;;;;14.70;8.77;;;;;;;;;;4946466;28;20114;-72
2022/12/01 04:36:55;;;;;;;20.38;12.38;;;;;;;;;;4954307;28;20030;-72
2022/12/01 04:39:21;;;;;;;12.18;8.68;;;;;;;;;;4953474;28;20130;-72
2022/12/01 04:41:49;;;;;;;16.40;11.43;;;;;;;;;;4960082;28;20035;-72
2022/12/01 04:44:15;;;;;;;16.48;12.10;;;;;;;;;;4951227;28;20035;-72
2022/12/01 04:46:41;;;;;;;14.18;12.10;;;;;;;;;;4946771;28;20031;-72
2022/12/01 04:49:07;;;;;;;13.60;11.60;;;;;;;;;;4959122;28;20046;-72
2022/12/01 04:51:33;;;;;;;13.88;10.73;;;;;;;;;;4963922;28;20027;-72
2022/12/01 04:54:01;;;;;;;14.95;11.60;;;;;;;;;;4970820;28;20027;-72
2022/12/01 04:56:32;;;;;;;14.82;11.23;;;;;;;;;;4946934;28;20482;-72
2022/12/01 04:59:00;;;;;;;9.95;8.75;;;;;;;;;;4950562;28;20050;-72
2022/12/01 05:01:26;;;;;;;14.27;9.93;;;;;;;;;;4956953;28;20039;-72
2022/12/01 05:03:54;;;;;;;14.45;8.95;;;;;;;;;;4968815;28;20500;-72
2022/12/01 05:06:22;;;;;;;14.05;11.00;;;;;;;;;;4948634;28;20122;-72
2022/12/01 05:08:53;;;;;;;16.63;10.82;;;;;;;;;;4951804;28;20027;-72
2022/12/01 05:11:27;;;;;;;12.55;10.05;;;;;;;;;;4950756;28;20046;-72
2022/12/01 05:13:53;;;;;;;11.95;9.50;;;;;;;;;;4953789;28;20055;-72
2022/12/01 05:16:22;;;;;;;13.45;9.57;;;;;;;;;;4955623;28;20035;-72
2022/12/01 05:18:49;;;;;;;16.08;12.30;;;;;;;;;;4946516;28;20050;-72
2022/12/01 05:21:17;;;;;;;10.70;9.32;;;;;;;;;;4960614;28;20031;-72
2022/12/01 05:23:48;;;;;;;12.25;8.90;;;;;;;;;;4945488;28;20035;-72
2022/12/01 05:26:14;;;;;;;13.07;10.60;;;;;;;;;;4941238;29;20490;-72
2022/12/01 05:28:42;;;;;;;13.13;9.63;;;;;;;;;;4934871;29;20027;-72
2022/12/01 05:31:13;;;;;;;15.82;10.63;;;;;;;;;;4951943;28;20346;-72
2022/12/01 05:33:39;;;;;;;16.33;10.98;;;;;;;;;;4953575;28;20055;-72
2022/12/01 05:36:07;;;;;;;16.83;11.90;;;;;;;;;;4953261;28;20041;-72
2022/12/01 05:38:33;;;;;;;12.23;8.95;;;;;;;;;;4949869;28;20027;-72
2022/12/01 05:40:58;;;;;;;12.90;10.63;;;;;;;;;;4960135;28;20081;-72
2022/12/01 05:43:27;;;;;;;12.75;10.00;;;;;;;;;;4954036;28;20027;-73
2022/12/01 05:45:54;;;;;;;18.25;12.68;;;;;;;;;;4952236;28;20039;-72
2022/12/01 05:48:22;;;;;;;16.05;10.20;;;;;;;;;;4949693;28;20478;-72
2022/12/01 05:50:50;;;;;;;15.18;9.27;;;;;;;;;;4947374;28;20504;-72
2022/12/01 05:53:16;;;;;;;17.58;12.00;;;;;;;;;;4960192;28;20031;-72
2022/12/01 05:55:50;;;;;;;14.20;12.15;;;;;;;;;;4955558;28;20035;-72
2022/12/01 05:58:16;;;;;;;15.50;11.93;;;;;;;;;;4949347;28;20038;-72
2022/12/01 06:00:44;;;;;;;15.38;10.50;;;;;;;;;;4948142;28;20129;-72
2022/12/01 06:03:12;;;;;;;16.02;12.85;;;;;;;;;;4960542;28;20039;-72
2022/12/01 06:05:38;;;;;;;15.25;9.93;;;;;;;;;;4960819;28;20031;-72
2022/12/01 06:08:04;;;;;;;14.15;11.57;;;;;;;;;;4956913;28;20555;-73
2022/12/01 06:10:32;;;;;;;13.88;10.48;;;;;;;;;;4947724;29;20023;-72
2022/12/01 06:12:58;;;;;;;14.65;11.85;;;;;;;;;;4959581;28;20061;-72
2022/12/01 06:15:24;;;;;;;16.50;12.13;;;;;;;;;;4951327;28;20090;-72
2022/12/01 06:17:57;;;;;;;17.50;9.75;;;;;;;;;;4955803;28;20039;-72
2022/12/01 06:20:27;;;;;;;13.45;9.88;;;;;;;;;;4930144;29;20039;-72
2022/12/01 06:22:53;;;;;;;15.15;11.73;;;;;;;;;;4954480;28;20035;-72
2022/12/01 06:25:21;;;;;;;22.60;11.48;;;;;;;;;;4967618;28;20103;-72
2022/12/01 06:27:54;;;;;;;14.40;10.57;;;;;;;;;;4959297;28;20042;-72
2022/12/01 06:30:24;;;;;;;15.85;9.57;;;;;;;;;;4946884;29;20035;-72
2022/12/01 06:32:50;;;;;;;17.20;11.88;;;;;;;;;;4945905;28;20031;-73
2022/12/01 06:35:18;;;;;;;17.15;12.25;;;;;;;;;;4942033;29;20043;-72
2022/12/01 06:37:44;;;;;;;17.55;11.95;;;;;;;;;;4960105;28;20055;-72
2022/12/01 06:40:13;;;;;;;16.63;11.27;;;;;;;;;;4941807;29;20041;-72
2022/12/01 06:42:39;;;;;;;12.35;8.85;;;;;;;;;;4955109;28;20046;-72
2022/12/01 06:45:07;;;;;;;13.70;11.25;;;;;;;;;;4978360;23;20075;-77
2022/12/01 06:47:35;;;;;;;17.55;11.40;;;;;;;;;;4927164;29;20044;-77
2022/12/01 06:50:03;;;;;;;22.08;12.93;;;;;;;;;;4943370;28;20401;-77
2022/12/01 06:52:31;;;;;;;15.98;10.63;;;;;;;;;;4946197;29;20474;-77
2022/12/01 06:54:59;;;;;;;15.98;11.25;;;;;;;;;;4944857;29;20023;-77
2022/12/01 06:57:25;;;;;;;13.95;9.52;;;;;;;;;;4930715;29;20039;-78
2022/12/01 06:59:53;;;;;;;12.60;9.85;;;;;;;;;;4934072;29;20509;-78
2022/12/01 07:02:22;;;;;;;16.55;10.07;;;;;;;;;;4943867;28;20070;-78
2022/12/01 07:04:48;;;;;;;14.10;11.95;;;;;;;;;;4935199;29;20035;-78
2022/12/01 07:07:13;;;;;;;13.13;10.73;;;;;;;;;;4934887;29;20523;-78
2022/12/01 07:09:39;;;;;;;21.42;12.60;;;;;;;;;;4941647;29;20427;-78
2022/12/01 07:12:05;;;;;;;18.30;11.85;;;;;;;;;;4933369;29;20426;-78
2022/12/01 07:14:31;;;;;;;15.18;10.02;;;;;;;;;;4937021;29;20525;-78
2022/12/01 07:17:02;;;;;;;13.65;10.48;;;;;;;;;;4942399;29;20043;-78
2022/12/01 07:19:33;;;;;;;15.65;10.27;;;;;;;;;;4936216;29;20040;-78
2022/12/01 07:22:01;;;;;;;20.48;11.73;;;;;;;;;;4933448;29;20486;-78
2022/12/01 07:24:31;;;;;;;11.45;10.05;;;;;;;;;;4936060;29;20036;-78
2022/12/01 07:26:59;;;;;;;14.32;11.65;;;;;;;;;;4934185;29;20024;-78
2022/12/01 07:29:25;;;;;;;12.75;9.88;;;;;;;;;;4933837;29;20438;-78
2022/12/01 07:31:53;;;;;;;12.32;10.10;;;;;;;;;;4937608;29;20436;-77
2022/12/01 07:34:26;;;;;;;16.27;11.63;;;;;;;;;;4927321;29;20032;-76
2022/12/01 07:36:54;;;;;;;15.15;10.75;;;;;;;;;;4950844;28;20036;-77
2022/12/01 07:39:23;;;;;;;18.10;12.48;;;;;;;;;;4939247;29;20042;-77
2022/12/01 07:41:53;;;;;;;14.75;11.35;;;;;;;;;;4925161;29;20031;-77
2022/12/01 07:44:22;;;;;;;17.55;11.85;;;;;;;;;;4918084;29;20046;-77
2022/12/01 07:46:52;;;;;;;18.65;10.65;;;;;;;;;;4928626;29;20047;-77
2022/12/01 07:49:20;;;;;;;13.68;10.80;;;;;;;;;;4942388;29;20038;-77
2022/12/01 07:51:48;;;;;;;16.95;9.95;;;;;;;;;;4935464;29;20052;-78
2022/12/01 07:54:19;;;;;;;14.38;10.15;;;;;;;;;;4925480;29;20027;-78
2022/12/01 07:56:48;;;;;;;17.85;11.70;;;;;;;;;;4934073;29;20039;-78
2022/12/01 07:59:14;;;;;;;15.32;11.00;;;;;;;;;;4934737;29;20019;-78
2022/12/01 08:01:42;;;;;;;14.82;11.32;;;;;;;;;;4942132;29;20050;-78
2022/12/01 08:04:10;;;;;;;15.75;10.55;;;;;;;;;;4917256;29;20051;-77
2022/12/01 08:06:36;;;;;;;14.88;10.40;;;;;;;;;;4931916;29;20100;-77
2022/12/01 08:09:05;;;;;;;18.17;12.07;;;;;;;;;;4915633;29;20043;-77
2022/12/01 08:11:31;;;;;;;13.85;9.75;;;;;;;;;;4939995;29;20031;-76
2022/12/01 08:13:56;;;;;;;15.93;10.05;;;;;;;;;;4925673;29;20066;-76
2022/12/01 08:16:25;;;;;;;19.05;11.52;;;;;;;;;;4937808;29;20042;-76
2022/12/01 08:18:51;;;;;;;20.23;13.25;;;;;;;;;;4928670;29;20042;-77
2022/12/01 08:21:18;;;;;;;16.42;11.45;;;;;;;;;;4938329;29;20027;-76
2022/12/01 08:23:44;;;;;;;18.63;12.52;;;;;;;;;;4932261;29;20042;-76
2022/12/01 08:26:13;;;;;;;16.95;11.73;;;;;;;;;;4930140;29;20028;-76
2022/12/01 08:28:39;;;;;;;15.23;12.93;;;;;;;;;;4934170;29;20024;-76
2022/12/01 08:31:06;;;;;;;16.65;11.27;;;;;;;;;;4927969;29;20368;-76
2022/12/01 08:33:32;;;;;;;15.35;10.98;;;;;;;;;;4939758;29;20118;-76
2022/12/01 08:36:00;;;;;;;17.52;12.48;;;;;;;;;;4923012;29;20035;-76
2022/12/01 08:38:26;;;;;;;18.75;11.95;;;;;;;;;;4928869;29;20039;-76
2022/12/01 08:41:00;;;;;;;13.80;10.75;;;;;;;;;;4940742;29;20494;-76
2022/12/01 08:43:28;;;;;;;21.42;12.38;;;;;;;;;;4942729;29;20031;-76
2022/12/01 08:46:00;;;;;;;16.55;10.25;;;;;;;;;;4935370;29;20050;-77
2022/12/01 08:48:28;;;;;;;16.95;11.57;;;;;;;;;;4931278;29;20030;-77
2022/12/01 08:51:01;;;;;;;15.27;10.00;;;;;;;;;;4930822;29;20027;-77
2022/12/01 08:53:29;;;;;;;16.20;10.35;;;;;;;;;;4923258;29;20500;-77
2022/12/01 08:56:02;;;;;;;12.15;10.20;;;;;;;;;;4929828;29;20028;-77
2022/12/01 08:58:28;;;;;;;16.23;10.30;;;;;;;;;;4930398;29;20044;-76
2022/12/01 09:01:06;;;;;;;14.95;10.75;;;;;;;;;;4933118;29;20059;-76
2022/12/01 09:03:36;;;;;;;17.17;10.20;;;;;;;;;;4933240;29;20043;-75
2022/12/01 09:06:09;;;;;;;14.77;9.98;;;;;;;;;;4928195;29;20028;-77
2022/12/01 09:08:37;;;;;;;13.52;10.15;;;;;;;;;;4893000;29;20038;-76
2022/12/01 09:11:05;;;;;;;22.70;12.23;;;;;;;;;;4931888;29;20038;-76
2022/12/01 09:13:31;;;;;;;15.65;10.75;;;;;;;;;;4911751;29;20486;-77
2022/12/01 09:15:59;;;;;;;16.15;10.85;;;;;;;;;;4920067;29;20039;-77
2022/12/01 09:18:25;;;;;;;15.95;10.00;;;;;;;;;;4913765;29;20055;-76
2022/12/01 09:20:53;;;;;;;17.10;9.82;;;;;;;;;;4898066;29;20039;-76
2022/12/01 09:23:22;;;;;;;15.70;9.95;;;;;;;;;;4925813;29;20032;-77
2022/12/01 09:25:50;;;;;;;16.83;11.90;;;;;;;;;;4936928;29;20032;-77
2022/12/01 09:28:19;;;;;;;15.88;9.82;;;;;;;;;;4912591;29;20485;-77
2022/12/01 09:30:47;;;;;;;14.52;11.07;;;;;;;;;;4916219;29;20039;-77
2022/12/01 09:33:13;;;;;;;14.90;11.07;;;;;;;;;;4932952;29;20043;-77
2022/12/01 09:35:41;;;;;;;12.75;11.00;;;;;;;;;;4931121;29;20467;-77
2022/12/01 09:38:07;;;;;;;17.63;11.57;;;;;;;;;;4924787;29;20032;-77
2022/12/01 09:40:35;;;;;;;13.85;9.73;;;;;;;;;;4928383;29;20046;-78
2022/12/01 09:43:03;;;;;;;16.15;12.50;;;;;;;;;;4930466;29;20047;-77
2022/12/01 09:45:38;;;;;;;17.63;9.68;;;;;;;;;;4931659;29;20032;-78
2022/12/01 09:48:05;;;;;;;16.17;10.70;;;;;;;;;;4922291;29;20051;-77
2022/12/01 09:50:31;;;;;;;16.63;11.10;;;;;;;;;;4931680;29;20302;-77
2022/12/01 09:53:05;;;;;;;12.15;9.00;;;;;;;;;;4933551;29;20031;-77
2022/12/01 09:55:31;;;;;;;;;;;;;;;;;;4922174;29;20047;-77
2022/12/01 09:58:03;;;;;;;12.88;9.18;;;;;;;;;;4918299;29;19911;-77
2022/12/01 10:00:31;;;;;;;15.32;9.80;;;;;;;;;;4924868;29;20028;-78
2022/12/01 10:03:06;;;;;;;16.35;11.50;;;;;;;;;;4919385;29;20505;-77
2022/12/01 10:05:47;;;;;;;15.77;12.32;;;;;;;;;;4915912;29;20030;-76
2022/12/01 10:08:17;;;;;;;18.45;9.07;;;;;;;;;;4941685;29;20036;-78
2022/12/01 10:10:46;;;;;;;14.75;11.70;;;;;;;;;;4929520;29;20028;-77
2022/12/01 10:13:18;;;;;;;14.90;11.95;;;;;;;;;;4948738;29;20035;-77
2022/12/01 10:15:46;;;;;;;14.15;10.90;;;;;;;;;;4930599;29;20036;-77
2022/12/01 10:18:38;;;;;;;14.07;9.77;;;;;;;;;;4917972;29;20044;-77
2022/12/01 10:21:32;;;;;;;13.05;8.75;;;;;;;;;;4928502;29;20043;-77
2022/12/01 10:24:26;;;;;;;16.80;10.45;;;;;;;;;;4930725;29;20036;-77
2022/12/01 10:27:04;;;;;;;12.57;9.43;;;;;;;;;;4928834;29;20036;-77
2022/12/01 10:29:39;;;;;;;12.63;9.63;;;;;;;;;;4929786;29;20043;-77
2022/12/01 10:32:17;;;;;;;17.63;11.88;;;;;;;;;;4922435;29;20035;-76
2022/12/01 10:34:48;;;;;;;9.82;8.32;;;;;;;;;;4931018;29;20046;-76
2022/12/01 10:37:19;;;;;;;10.80;7.38;;;;;;;;;;4944434;29;20055;-77
2022/12/01 10:39:46;;;;;;;11.80;8.68;;;;;;;;;;4933847;29;20486;-78
2022/12/01 10:42:26;;;;;;;10.48;8.55;;;;;;;;;;4920118;29;20044;-78
2022/12/01 10:44:59;;;;;;;14.48;11.32;;;;;;;;;;4933936;29;20031;-76
2022/12/01 10:47:28;;;;;;;13.38;9.35;;;;;;;;;;4933467;29;20038;-77
2022/12/01 10:49:54;;;;;;;12.73;8.48;;;;;;;;;;4932437;29;20028;-78
2022/12/01 10:52:28;;;;;;;13.75;10.02;;;;;;;;;;4908677;29;20042;-77
2022/12/01 10:54:54;;;;;;;14.30;10.15;;;;;;;;;;4931003;29;20047;-75
2022/12/01 10:57:20;;;;;;;14.65;9.73;;;;;;;;;;4906305;29;20486;-77
2022/12/01 10:59:49;;;;;;;13.77;10.15;;;;;;;;;;4930373;29;20425;-77
2022/12/01 11:02:19;;;;;;;13.15;8.73;;;;;;;;;;4903327;29;20043;-77
2022/12/01 11:04:58;;;;;;;13.80;10.23;;;;;;;;;;4916026;29;20043;-76
2022/12/01 11:07:26;;;;;;;10.48;8.15;;;;;;;;;;4920176;29;20288;-77
2022/12/01 11:10:05;;;;;;;15.15;9.52;;;;;;;;;;4902959;29;20036;-78
2022/12/01 11:12:33;;;;;;;11.77;8.52;;;;;;;;;;4934664;29;20426;-76
2022/12/01 11:15:03;;;;;;;14.00;9.23;;;;;;;;;;4916274;29;20426;-77
2022/12/01 11:17:40;;;;;;;14.40;9.73;;;;;;;;;;4924718;29;20498;-76
2022/12/01 11:20:29;;;;;;;13.85;11.50;;;;;;;;;;4930179;29;20032;-77
2022/12/01 11:23:14;;;;;;;11.40;8.88;;;;;;;;;;4930992;29;20036;-77
2022/12/01 11:25:40;;;;;;;13.43;8.57;;;;;;;;;;4932277;29;20031;-76
2022/12/01 11:28:08;;;;;;;12.90;9.15;;;;;;;;;;4926983;29;20034;-77
2022/12/01 11:30:34;;;;;;;11.55;9.32;;;;;;;;;;4935022;28;20028;-77
2022/12/01 11:33:05;;;;;;;14.48;9.57;;;;;;;;;;4918168;29;20087;-77
2022/12/01 11:35:38;;;;;;;12.68;8.82;;;;;;;;;;4923886;29;20050;-76
2022/12/01 11:38:05;;;;;;;13.73;9.00;;;;;;;;;;4933858;29;20032;-77
2022/12/01 11:40:44;;;;;;;14.35;10.27;;;;;;;;;;4924840;29;20288;-76
2022/12/01 11:43:24;;;;;;;15.18;9.77;;;;;;;;;;4929729;29;20035;-77
2022/12/01 11:45:50;;;;;;;14.43;9.10;;;;;;;;;;4934232;29;20384;-77
2022/12/01 11:48:19;;;;;;;14.75;9.75;;;;;;;;;;4916554;29;20036;-77
2022/12/01 11:51:06;;;;;;;11.85;8.63;;;;;;;;;;4922469;29;20032;-76
2022/12/01 11:53:33;;;;;;;13.70;9.55;;;;;;;;;;4919126;29;20055;-77
2022/12/01 11:56:22;;;;;;;15.25;10.10;;;;;;;;;;4924375;29;20051;-77
2022/12/01 11:58:52;;;;;;;14.70;10.13;;;;;;;;;;4909635;29;20055;-77
2022/12/01 12:01:33;;;;;;;13.27;9.48;;;;;;;;;;4921870;29;20040;-77
2022/12/01 12:04:18;;;;;;;16.25;9.93;;;;;;;;;;4932689;29;20031;-77
2022/12/01 12:06:50;;;;;;;10.65;7.90;;;;;;;;;;4947592;28;20034;-77
2022/12/01 12:09:26;;;;;;;10.75;8.63;;;;;;;;;;4921434;29;20512;-77
2022/12/01 12:12:03;;;;;;;14.10;9.90;;;;;;;;;;4922422;29;20410;-77
2022/12/01 12:14:35;;;;;;;15.85;11.02;;;;;;;;;;4920589;29;20231;-77
2022/12/01 12:17:13;;;;;;;14.05;9.32;;;;;;;;;;4922245;29;20038;-76
2022/12/01 12:19:49;;;;;;;15.02;10.27;;;;;;;;;;4934709;29;20445;-77
2022/12/01 12:22:20;;;;;;;14.63;10.30;;;;;;;;;;4934377;29;20058;-78
2022/12/01 12:25:05;;;;;;;12.80;8.73;;;;;;;;;;4930663;29;20387;-78
2022/12/01 12:27:42;;;;;;;15.43;9.48;;;;;;;;;;4927221;29;20451;-77
2022/12/01 12:30:11;;;;;;;20.25;9.38;;;;;;;;;;4919526;29;20042;-77
2022/12/01 12:32:57;;;;;;;15.63;10.07;;;;;;;;;;4919200;29;20391;-77
2022/12/01 12:35:37;;;;;;;13.27;8.43;;;;;;;;;;4931476;29;20040;-77
2022/12/01 12:38:28;;;;;;;14.02;9.00;;;;;;;;;;4926881;29;20040;-77
2022/12/01 12:41:05;;;;;;;11.90;9.25;;;;;;;;;;4934055;29;20035;-77
2022/12/01 12:43:49;;;;;;;17.10;11.00;;;;;;;;;;4930799;29;20036;-76
2022/12/01 12:46:19;;;;;;;13.20;7.88;;;;;;;;;;4978581;23;20412;-71
2022/12/01 12:49:05;;;;;;;15.70;9.93;;;;;;;;;;4954532;28;20039;-72
2022/12/01 12:51:34;;;;;;;;;;;;;;;;;;4971254;28;20037;-70
2022/12/01 12:54:18;;;;;;;10.38;9.10;;;;;;;;;;4969791;28;19917;-73
2022/12/01 12:56:50;;;;;;;19.17;11.05;;;;;;;;;;4949751;28;20039;-71
2022/12/01 12:59:27;;;;;;;10.35;8.68;;;;;;;;;;4952507;29;20031;-72
2022/12/01 13:01:53;;;;;;;13.48;9.70;;;;;;;;;;4950462;28;20046;-72
2022/12/01 13:04:31;;;;;;;11.25;8.98;;;;;;;;;;4953042;28;20043;-72
2022/12/01 13:07:07;;;;;;;14.90;10.38;;;;;;;;;;4950647;28;20039;-72
2022/12/01 13:09:48;;;;;;;14.93;11.57;;;;;;;;;;4949991;29;20032;-73
2022/12/01 13:12:16;;;;;;;;;;;;;;;;;;4950805;28;20046;-73
2022/12/01 13:14:45;;;;;;;11.35;8.30;;;;;;;;;;4949348;28;20317;-73
2022/12/01 13:17:26;;;;;;;15.13;11.00;;;;;;;;;;4934098;29;20379;-73
2022/12/01 13:19:54;;;;;;;11.20;9.75;;;;;;;;;;4951571;28;20038;-73
2022/12/01 13:22:29;;;;;;;13.52;9.32;;;;;;;;;;4934202;28;20043;-72
2022/12/01 13:24:55;;;;;;;11.63;7.88;;;;;;;;;;4949458;28;20102;-72
2022/12/01 13:27:22;;;;;;;12.52;9.45;;;;;;;;;;4950566;28;20042;-72
2022/12/01 13:29:52;;;;;;;14.13;9.73;;;;;;;;;;4934758;29;20031;-72
2022/12/01 13:32:23;;;;;;;14.82;9.38;;;;;;;;;;4953404;29;20034;-73
2022/12/01 13:34:54;;;;;;;12.55;8.98;;;;;;;;;;4949838;28;20040;-72
2022/12/01 13:37:52;;;;;;;10.45;9.18;;;;;;;;;;4951536;29;20042;-72
2022/12/01 13:40:26;;;;;;;15.30;8.40;;;;;;;;;;4951581;28;20043;-72
2022/12/01 13:42:58;;;;;;;11.88;9.00;;;;;;;;;;4949188;28;20043;-72
2022/12/01 13:45:24;;;;;;;12.70;9.93;;;;;;;;;;4949413;28;20031;-72
2022/12/01 13:47:54;;;;;;;13.38;10.52;;;;;;;;;;4953095;29;20027;-72
2022/12/01 13:50:35;;;;;;;13.48;9.93;;;;;;;;;;4935027;29;20042;-72
2022/12/01 13:53:16;;;;;;;13.75;9.98;;;;;;;;;;4950557;29;20035;-72
2022/12/01 13:56:05;;;;;;;14.10;10.20;;;;;;;;;;4949738;28;20031;-73
2022/12/01 13:58:33;;;;;;;15.65;9.48;;;;;;;;;;4951663;29;20031;-73
2022/12/01 14:01:18;;;;;;;16.85;10.82;;;;;;;;;;4964870;28;20494;-73
2022/12/01 14:03:51;;;;;;;11.27;7.15;;;;;;;;;;4949118;29;20504;-73
2022/12/01 14:06:23;;;;;;;15.30;9.00;;;;;;;;;;4930846;29;20100;-72
2022/12/01 14:08:55;;;;;;;12.98;9.63;;;;;;;;;;4932397;29;20286;-71
2022/12/01 14:11:25;;;;;;;12.77;9.82;;;;;;;;;;4951410;28;20027;-71
2022/12/01 14:13:55;;;;;;;13.32;9.20;;;;;;;;;;4954634;28;20035;-73
2022/12/01 14:16:22;;;;;;;12.75;9.75;;;;;;;;;;4955420;28;20039;-73
2022/12/01 14:18:53;;;;;;;16.80;10.65;;;;;;;;;;4959381;28;20072;-73
2022/12/01 14:21:38;;;;;;;12.18;8.07;;;;;;;;;;4957910;28;20031;-72
2022/12/01 14:24:16;;;;;;;14.82;10.15;;;;;;;;;;4957155;28;20039;-72
2022/12/01 14:26:43;;;;;;;13.82;9.95;;;;;;;;;;4954234;28;20027;-72
2022/12/01 14:29:22;;;;;;;14.70;8.50;;;;;;;;;;4958417;29;20414;-73
2022/12/01 14:31:50;;;;;;;12.57;10.13;;;;;;;;;;4958296;28;20027;-72
2022/12/01 14:34:18;;;;;;;14.93;9.35;;;;;;;;;;4957626;28;20038;-73
2022/12/01 14:36:59;;;;;;;18.83;10.93;;;;;;;;;;4954551;28;20035;-73
2022/12/01 14:39:25;;;;;;;12.10;9.10;;;;;;;;;;4953350;28;20023;-72
2022/12/01 14:41:57;;;;;;;15.90;11.18;;;;;;;;;;4953533;28;20461;-72